Time;durP1;ratioP1;P1;durP2;ratioP2;P2;SDS_P1;SDS_P2;PMS_P1;PMS_P2;Temp;Humidity;BMP_temperature;BMP_pressure;BME280_temperature;BME280_humidity;BME280_pressure;Samples;Min_cycle;Max_cycle;Signal;HPM_P1;HPM_P2
2022/01/04 00:01:18;;;;;;;;;;;9.20;89.00;;;;;;5033318;28;21987;-88
2022/01/04 00:03:43;;;;;;;;;;;9.20;89.10;;;;;;5032166;28;19956;-88
2022/01/04 00:06:09;;;;;;;;;;;9.20;88.90;;;;;;5033424;28;20003;-88
2022/01/04 00:08:34;;;;;;;;;;;9.30;88.80;;;;;;5033366;28;20413;-89
2022/01/04 00:13:22;;;;;;;;;;;9.20;88.60;;;;;;5033917;28;20015;-88
2022/01/04 00:13:54;;;;;;;;;;;9.30;88.70;;;;;;5014215;28;19963;-88
2022/01/04 00:16:20;;;;;;;;;;;9.20;88.70;;;;;;5031321;28;19960;-89
2022/01/04 00:18:46;;;;;;;;;;;9.10;88.70;;;;;;5039896;28;19966;-88
2022/01/04 00:21:12;;;;;;;;;;;9.10;88.90;;;;;;5033195;28;20375;-88
2022/01/04 00:23:37;;;;;;;;;;;9.10;88.80;;;;;;5051304;28;19913;-88
2022/01/04 00:26:03;;;;;;;;;;;9.10;88.80;;;;;;5033211;28;19912;-88
2022/01/04 00:28:28;;;;;;;;;;;9.10;89.10;;;;;;5051095;28;19966;-88
2022/01/04 00:30:54;;;;;;;;;;;9.10;88.80;;;;;;5026029;28;19913;-88
2022/01/04 00:33:19;;;;;;;;;;;9.10;88.40;;;;;;5021068;28;19958;-88
2022/01/04 00:35:45;;;;;;;;;;;9.10;88.60;;;;;;5031371;28;19910;-88
2022/01/04 00:38:10;;;;;;;;;;;9.10;88.50;;;;;;5027148;28;20398;-88
2022/01/04 00:40:36;;;;;;;;;;;9.10;88.60;;;;;;5033390;28;19909;-88
2022/01/04 00:43:02;;;;;;;;;;;9.10;88.50;;;;;;5049746;28;19924;-89
2022/01/04 00:45:31;;;;;;;;;;;9.10;88.80;;;;;;5050802;28;19916;-89
2022/01/04 00:50:23;;;;;;;;;;;9.10;88.80;;;;;;5048645;28;20283;-88
2022/01/04 00:52:48;;;;;;;;;;;9.00;88.80;;;;;;5052245;28;19953;-88
2022/01/04 00:55:14;;;;;;;;;;;9.00;88.80;;;;;;5030382;28;19925;-88
2022/01/04 00:57:40;;;;;;;;;;;9.10;88.80;;;;;;5021802;28;20318;-89
2022/01/04 01:00:06;;;;;;;;;;;8.90;88.60;;;;;;5033180;28;20322;-88
2022/01/04 01:02:31;;;;;;;;;;;8.90;88.60;;;;;;5051258;28;19916;-89
2022/01/04 01:04:57;;;;;;;;;;;9.00;88.70;;;;;;5032118;28;19913;-88
2022/01/04 01:07:22;;;;;;;;;;;9.00;88.20;;;;;;5032987;28;19909;-88
2022/01/04 01:10:11;;;;;;;;;;;9.00;88.40;;;;;;5032825;28;19924;-88
2022/01/04 01:12:33;;;;;;;;;;;8.90;88.40;;;;;;5049595;28;19936;-88
2022/01/04 01:14:59;;;;;;;;;;;8.80;88.50;;;;;;5051979;28;20264;-88
2022/01/04 01:17:24;;;;;;;;;;;8.70;88.40;;;;;;5034511;28;19958;-88
2022/01/04 01:19:50;;;;;;;;;;;8.60;88.90;;;;;;5032967;28;19908;-88
2022/01/04 01:22:15;;;;;;;;;;;8.80;88.90;;;;;;5024646;28;19910;-88
2022/01/04 01:24:41;;;;;;;;;;;8.70;88.60;;;;;;5032576;28;20401;-88
2022/01/04 01:27:06;;;;;;;;;;;8.70;88.30;;;;;;5050310;28;20386;-89
2022/01/04 01:29:32;;;;;;;;;;;8.70;88.40;;;;;;5032279;28;20003;-88
2022/01/04 01:31:57;;;;;;;;;;;8.70;88.60;;;;;;5032661;28;19916;-89
2022/01/04 01:34:23;;;;;;;;;;;8.80;88.40;;;;;;5032645;28;19917;-88
2022/01/04 01:36:49;;;;;;;;;;;8.60;88.50;;;;;;5050345;28;20027;-88
2022/01/04 01:39:14;;;;;;;;;;;8.60;88.50;;;;;;5032825;28;19948;-88
2022/01/04 01:41:40;;;;;;;;;;;8.60;88.60;;;;;;5032479;28;19912;-89
2022/01/04 01:44:05;;;;;;;;;;;8.50;88.80;;;;;;5031765;28;19927;-89
2022/01/04 01:46:31;;;;;;;;;;;8.50;88.80;;;;;;5051261;28;20029;-89
2022/01/04 01:48:56;;;;;;;;;;;8.60;89.30;;;;;;5032162;28;20394;-89
2022/01/04 01:51:23;;;;;;;;;;;8.60;89.00;;;;;;5051415;28;20295;-89
2022/01/04 01:53:48;;;;;;;;;;;8.60;88.80;;;;;;5035543;28;19912;-88
2022/01/04 01:56:14;;;;;;;;;;;8.60;88.60;;;;;;5047194;28;20425;-88
2022/01/04 01:58:39;;;;;;;;;;;8.60;88.30;;;;;;5035904;28;19909;-88
2022/01/04 02:01:05;;;;;;;;;;;8.60;88.40;;;;;;5069341;28;19928;-88
2022/01/04 02:03:30;;;;;;;;;;;8.50;88.60;;;;;;5052144;28;19974;-88
2022/01/04 02:05:56;;;;;;;;;;;8.50;88.90;;;;;;5052809;28;19909;-88
2022/01/04 02:08:22;;;;;;;;;;;8.50;88.90;;;;;;5035423;28;19955;-88
2022/01/04 02:10:48;;;;;;;;;;;8.50;88.70;;;;;;5053655;28;20334;-88
2022/01/04 02:13:13;;;;;;;;;;;8.40;89.30;;;;;;5036026;28;19917;-88
2022/01/04 02:15:38;;;;;;;;;;;8.50;89.10;;;;;;5035012;28;20343;-89
2022/01/04 02:18:05;;;;;;;;;;;8.50;88.50;;;;;;5035207;28;19912;-88
2022/01/04 02:20:30;;;;;;;;;;;8.40;88.70;;;;;;5035683;28;20374;-88
2022/01/04 02:22:56;;;;;;;;;;;8.50;88.50;;;;;;5035036;28;19909;-88
2022/01/04 02:25:21;;;;;;;;;;;8.50;88.80;;;;;;5035676;28;20330;-88
2022/01/04 02:27:47;;;;;;;;;;;8.50;88.60;;;;;;5034840;28;19920;-89
2022/01/04 02:30:15;;;;;;;;;;;8.50;88.70;;;;;;5034402;28;19927;-88
2022/01/04 02:32:41;;;;;;;;;;;8.50;88.30;;;;;;5023862;28;19948;-88
2022/01/04 02:35:07;;;;;;;;;;;8.40;88.80;;;;;;5029162;28;19917;-88
2022/01/04 02:37:33;;;;;;;;;;;8.50;88.50;;;;;;5034939;28;19913;-88
2022/01/04 02:39:58;;;;;;;;;;;8.40;88.90;;;;;;5058330;28;19904;-90
2022/01/04 02:42:24;;;;;;;;;;;8.50;88.80;;;;;;5054591;28;19959;-89
2022/01/04 02:44:49;;;;;;;;;;;8.50;88.70;;;;;;5034976;28;20341;-87
2022/01/04 02:47:15;;;;;;;;;;;8.40;88.60;;;;;;5051392;28;19909;-88
2022/01/04 02:49:41;;;;;;;;;;;8.40;88.50;;;;;;5034700;28;19951;-88
2022/01/04 02:52:06;;;;;;;;;;;8.30;88.60;;;;;;5053346;28;19909;-88
2022/01/04 02:54:32;;;;;;;;;;;8.40;88.50;;;;;;5045446;28;19923;-89
2022/01/04 02:56:57;;;;;;;;;;;8.30;88.30;;;;;;5042380;28;20295;-88
2022/01/04 02:59:23;;;;;;;;;;;8.30;89.20;;;;;;5035123;28;20050;-88
2022/01/04 03:01:48;;;;;;;;;;;8.40;88.90;;;;;;5034187;28;19909;-88
2022/01/04 03:04:14;;;;;;;;;;;8.40;88.40;;;;;;5051778;28;19913;-88
2022/01/04 03:06:39;;;;;;;;;;;8.40;88.50;;;;;;5035196;28;19991;-88
2022/01/04 03:09:05;;;;;;;;;;;8.40;88.70;;;;;;5051915;28;19909;-88
2022/01/04 03:11:32;;;;;;;;;;;8.50;88.70;;;;;;5052796;28;20287;-88
2022/01/04 03:13:57;;;;;;;;;;;8.50;88.50;;;;;;5052672;28;19948;-88
2022/01/04 03:16:22;;;;;;;;;;;8.40;88.60;;;;;;5034226;28;19956;-88
2022/01/04 03:21:19;;;;;;;;;;;8.50;88.30;;;;;;5052374;28;20306;-88
2022/01/04 03:23:45;;;;;;;;;;;8.60;88.50;;;;;;5058667;28;20004;-89
2022/01/04 03:26:10;;;;;;;;;;;8.50;88.90;;;;;;5052884;28;19948;-88
2022/01/04 03:28:40;;;;;;;;;;;8.50;88.50;;;;;;5051570;28;19909;-88
2022/01/04 03:31:05;;;;;;;;;;;8.40;88.90;;;;;;5034539;28;19915;-89
2022/01/04 03:33:31;;;;;;;;;;;8.40;89.20;;;;;;5051792;28;19908;-88
2022/01/04 03:35:56;;;;;;;;;;;8.40;89.20;;;;;;5034485;28;20401;-88
2022/01/04 03:38:22;;;;;;;;;;;8.30;89.10;;;;;;5034327;28;19912;-88
2022/01/04 03:40:48;;;;;;;;;;;8.40;89.10;;;;;;5033757;28;19909;-89
2022/01/04 03:43:13;;;;;;;;;;;8.40;89.00;;;;;;5034131;28;20011;-88
2022/01/04 03:45:39;;;;;;;;;;;8.30;89.00;;;;;;5033632;28;20385;-88
2022/01/04 03:48:04;;;;;;;;;;;8.20;89.60;;;;;;5033668;28;19909;-88
2022/01/04 03:50:30;;;;;;;;;;;8.30;89.40;;;;;;5033913;28;19908;-89
2022/01/04 03:52:55;;;;;;;;;;;8.40;89.20;;;;;;5042437;28;19909;-88
2022/01/04 03:55:21;;;;;;;;;;;8.30;89.20;;;;;;5027357;28;19967;-88
2022/01/04 03:57:46;;;;;;;;;;;8.40;89.40;;;;;;5029175;28;19917;-90
2022/01/04 04:00:12;;;;;;;;;;;8.40;89.50;;;;;;5034732;28;20423;-88
2022/01/04 04:02:38;;;;;;;;;;;8.40;89.30;;;;;;5036330;28;19912;-88
2022/01/04 04:05:05;;;;;;;;;;;8.50;89.30;;;;;;5035652;28;20362;-88
2022/01/04 04:07:30;;;;;;;;;;;8.40;89.00;;;;;;5036722;28;19944;-88
2022/01/04 04:09:56;;;;;;;;;;;8.30;88.90;;;;;;5035979;28;20382;-88
2022/01/04 04:12:23;;;;;;;;;;;8.30;89.70;;;;;;5032556;28;19909;-88
2022/01/04 04:14:48;;;;;;;;;;;8.30;89.90;;;;;;5051583;28;19936;-88
2022/01/04 04:17:14;;;;;;;;;;;8.20;89.40;;;;;;5037974;28;19913;-88
2022/01/04 04:19:39;;;;;;;;;;;8.30;89.70;;;;;;5049171;28;20283;-88
2022/01/04 04:22:05;;;;;;;;;;;8.30;90.00;;;;;;5037268;28;19963;-88
2022/01/04 04:24:30;;;;;;;;;;;8.40;89.50;;;;;;5041527;28;19920;-91
2022/01/04 04:26:55;;;;;;;;;;;8.40;89.10;;;;;;5053086;28;20004;-88
2022/01/04 04:29:21;;;;;;;;;;;8.40;89.00;;;;;;5038894;28;19992;-88
2022/01/04 04:31:46;;;;;;;;;;;8.40;88.90;;;;;;5031579;28;19975;-88
2022/01/04 04:34:12;;;;;;;;;;;8.30;89.10;;;;;;5042975;28;19980;-89
2022/01/04 04:36:37;;;;;;;;;;;8.30;89.30;;;;;;5035409;28;20282;-88
2022/01/04 04:39:03;;;;;;;;;;;8.40;89.10;;;;;;5013476;28;19917;-88
2022/01/04 04:41:28;;;;;;;;;;;8.40;88.80;;;;;;5013761;28;19960;-88
2022/01/04 04:43:54;;;;;;;;;;;8.40;88.80;;;;;;5029801;28;20364;-88
2022/01/04 04:46:20;;;;;;;;;;;8.30;88.80;;;;;;5020810;28;20348;-88
2022/01/04 04:48:46;;;;;;;;;;;8.40;88.70;;;;;;5020548;28;19910;-89
2022/01/04 04:51:11;;;;;;;;;;;8.30;88.80;;;;;;5041761;28;19915;-88
2022/01/04 04:53:36;;;;;;;;;;;8.30;89.40;;;;;;5032633;28;19913;-89
2022/01/04 04:56:02;;;;;;;;;;;8.30;89.10;;;;;;5050963;28;19908;-88
2022/01/04 04:58:29;;;;;;;;;;;8.40;88.90;;;;;;5050586;28;20390;-87
2022/01/04 05:00:54;;;;;;;;;;;8.40;88.70;;;;;;5033839;28;20004;-88
2022/01/04 05:03:20;;;;;;;;;;;8.50;88.80;;;;;;5033339;28;19948;-88
2022/01/04 05:05:45;;;;;;;;;;;8.40;88.80;;;;;;5051721;28;19909;-88
2022/01/04 05:08:11;;;;;;;;;;;8.40;88.90;;;;;;5033529;28;19909;-88
2022/01/04 05:10:36;;;;;;;;;;;8.40;88.70;;;;;;5033653;28;19908;-88
2022/01/04 05:13:02;;;;;;;;;;;8.40;88.60;;;;;;5021868;28;20283;-88
2022/01/04 05:15:27;;;;;;;;;;;8.40;88.40;;;;;;5051859;28;19908;-88
2022/01/04 05:17:52;;;;;;;;;;;8.30;88.90;;;;;;5033852;28;20377;-88
2022/01/04 05:20:18;;;;;;;;;;;8.30;88.90;;;;;;5033507;28;19916;-88
2022/01/04 05:22:43;;;;;;;;;;;8.30;88.90;;;;;;5033693;28;19920;-88
2022/01/04 05:25:09;;;;;;;;;;;8.40;88.60;;;;;;5033674;28;19917;-88
2022/01/04 05:27:34;;;;;;;;;;;8.30;88.90;;;;;;5035919;28;19909;-88
2022/01/04 05:30:00;;;;;;;;;;;8.40;88.80;;;;;;5037219;28;20006;-88
2022/01/04 05:32:25;;;;;;;;;;;8.50;88.60;;;;;;5037252;28;19909;-88
2022/01/04 05:34:51;;;;;;;;;;;8.50;88.60;;;;;;5035384;28;19920;-87
2022/01/04 05:37:16;;;;;;;;;;;8.50;88.20;;;;;;5055218;28;20007;-88
2022/01/04 05:39:42;;;;;;;;;;;8.30;88.60;;;;;;5036170;28;20334;-88
2022/01/04 05:42:10;;;;;;;;;;;8.40;88.80;;;;;;5036910;28;19919;-88
2022/01/04 05:44:36;;;;;;;;;;;8.40;88.80;;;;;;5037097;28;20366;-88
2022/01/04 05:47:02;;;;;;;;;;;8.40;88.90;;;;;;5054615;28;19913;-88
2022/01/04 05:49:28;;;;;;;;;;;8.50;88.60;;;;;;5036626;28;19954;-88
2022/01/04 05:51:53;;;;;;;;;;;8.50;88.80;;;;;;5036826;28;19948;-87
2022/01/04 05:54:18;;;;;;;;;;;8.40;88.90;;;;;;5028672;28;19925;-87
2022/01/04 05:57:15;;;;;;;;;;;8.50;88.70;;;;;;5054438;28;20119;-87
2022/01/04 05:59:40;;;;;;;;;;;8.50;88.90;;;;;;5046162;28;19915;-87
2022/01/04 06:02:06;;;;;;;;;;;8.40;88.50;;;;;;5036664;28;19991;-88
2022/01/04 06:04:31;;;;;;;;;;;8.50;88.70;;;;;;5033074;28;19909;-88
2022/01/04 06:06:56;;;;;;;;;;;8.50;88.80;;;;;;5033577;28;19959;-88
2022/01/04 06:09:27;;;;;;;;;;;8.40;88.30;;;;;;5036316;28;20394;-87
2022/01/04 06:17:06;;;;;;;;;;;8.40;88.70;;;;;;5052300;28;19932;-89
2022/01/04 06:19:32;;;;;;;;;;;8.30;88.80;;;;;;5037536;28;19917;-87
2022/01/04 06:21:57;;;;;;;;;;;8.30;88.80;;;;;;5016852;28;19963;-88
2022/01/04 06:24:23;;;;;;;;;;;8.40;88.40;;;;;;5017186;28;19936;-87
2022/01/04 06:26:48;;;;;;;;;;;8.30;88.60;;;;;;5036412;28;19915;-88
2022/01/04 06:29:14;;;;;;;;;;;8.20;88.70;;;;;;5035645;28;19909;-88
2022/01/04 06:31:40;;;;;;;;;;;8.30;88.90;;;;;;5054250;28;19908;-88
2022/01/04 06:34:05;;;;;;;;;;;8.30;88.60;;;;;;5036280;28;19970;-87
2022/01/04 06:36:31;;;;;;;;;;;8.30;88.70;;;;;;5035482;28;19967;-87
2022/01/04 06:38:56;;;;;;;;;;;8.20;88.80;;;;;;5035678;28;20394;-87
2022/01/04 06:41:22;;;;;;;;;;;8.30;88.80;;;;;;5026992;28;19909;-87
2022/01/04 06:43:47;;;;;;;;;;;8.30;88.80;;;;;;5034087;28;19944;-87
2022/01/04 06:46:13;;;;;;;;;;;8.20;88.70;;;;;;5038151;28;20011;-87
2022/01/04 06:48:39;;;;;;;;;;;8.20;89.20;;;;;;5035557;28;19909;-88
2022/01/04 06:51:05;;;;;;;;;;;8.10;89.00;;;;;;5035951;28;19931;-87
2022/01/04 06:53:30;;;;;;;;;;;8.20;88.80;;;;;;5016197;28;19913;-88
2022/01/04 06:55:56;;;;;;;;;;;8.30;89.10;;;;;;5016052;28;19916;-87
2022/01/04 06:58:21;;;;;;;;;;;8.30;88.30;;;;;;5016113;28;19909;-88
2022/01/04 07:00:46;;;;;;;;;;;8.40;88.20;;;;;;5021476;28;19920;-88
2022/01/04 07:03:12;;;;;;;;;;;8.30;88.20;;;;;;5033556;28;20523;-87
2022/01/04 07:05:37;;;;;;;;;;;8.30;88.40;;;;;;5027248;28;19983;-88
2022/01/04 07:08:03;;;;;;;;;;;8.40;88.40;;;;;;5038125;28;19917;-88
2022/01/04 07:10:29;;;;;;;;;;;8.40;88.20;;;;;;5036514;28;19919;-89
2022/01/04 07:12:54;;;;;;;;;;;8.30;88.40;;;;;;5041310;28;19936;-89
2022/01/04 07:15:20;;;;;;;;;;;8.30;88.90;;;;;;5036730;28;19952;-89
2022/01/04 07:17:45;;;;;;;;;;;8.30;88.80;;;;;;5035344;28;19912;-88
2022/01/04 07:20:11;;;;;;;;;;;8.30;88.80;;;;;;5053611;28;19909;-89
2022/01/04 07:22:36;;;;;;;;;;;8.30;88.90;;;;;;5027860;28;19992;-88
2022/01/04 07:25:03;;;;;;;;;;;8.30;88.80;;;;;;5033229;28;19909;-88
2022/01/04 07:27:40;;;;;;;;;;;8.20;88.30;;;;;;5033395;28;19909;-88
2022/01/04 07:30:05;;;;;;;;;;;8.30;88.30;;;;;;5034838;28;19909;-87
2022/01/04 07:32:31;;;;;;;;;;;8.20;88.50;;;;;;5034297;28;19913;-91
2022/01/04 07:34:57;;;;;;;;;;;8.30;88.30;;;;;;5034780;28;19920;-89
2022/01/04 07:37:22;;;;;;;;;;;8.30;88.40;;;;;;5035317;28;19913;-88
2022/01/04 07:39:48;;;;;;;;;;;8.30;88.40;;;;;;5034557;28;19920;-89
2022/01/04 07:42:13;;;;;;;;;;;8.30;88.30;;;;;;5033825;28;19967;-89
2022/01/04 07:44:39;;;;;;;;;;;8.20;88.40;;;;;;5031063;28;19909;-89
2022/01/04 07:47:04;;;;;;;;;;;8.30;88.50;;;;;;5031514;28;19919;-89
2022/01/04 07:49:30;;;;;;;;;;;8.30;88.90;;;;;;5030274;28;20256;-89
2022/01/04 07:51:55;;;;;;;;;;;8.40;88.50;;;;;;5048158;28;19908;-90
2022/01/04 07:54:21;;;;;;;;;;;8.40;88.00;;;;;;5038783;28;20320;-89
2022/01/04 07:56:46;;;;;;;;;;;8.30;88.10;;;;;;5034857;28;19916;-88
2022/01/04 07:59:12;;;;;;;;;;;8.20;88.30;;;;;;5033977;28;20295;-89
2022/01/04 08:01:37;;;;;;;;;;;8.30;88.60;;;;;;5052586;28;20286;-89
2022/01/04 08:04:04;;;;;;;;;;;8.30;88.80;;;;;;5052087;28;20047;-89
2022/01/04 08:06:30;;;;;;;;;;;8.40;88.50;;;;;;5035092;28;20370;-89
2022/01/04 08:08:55;;;;;;;;;;;8.30;88.40;;;;;;5033837;28;20007;-89
2022/01/04 08:11:21;;;;;;;;;;;8.30;88.30;;;;;;5034232;28;19908;-89
2022/01/04 08:13:46;;;;;;;;;;;8.40;88.30;;;;;;5034109;28;19909;-89
2022/01/04 08:16:14;;;;;;;;;;;8.50;87.90;;;;;;5037554;28;19909;-89
2022/01/04 08:18:40;;;;;;;;;;;8.50;88.00;;;;;;5055170;28;19969;-89
2022/01/04 08:21:07;;;;;;;;;;;8.40;87.90;;;;;;5034670;28;20339;-89
2022/01/04 08:23:32;;;;;;;;;;;8.30;88.20;;;;;;5051979;28;19909;-89
2022/01/04 08:25:57;;;;;;;;;;;8.30;88.40;;;;;;5034307;28;19916;-89
2022/01/04 08:28:23;;;;;;;;;;;8.30;88.30;;;;;;5033382;28;19913;-89
2022/01/04 08:30:50;;;;;;;;;;;8.20;88.60;;;;;;5033793;28;19909;-89
2022/01/04 08:33:15;;;;;;;;;;;8.40;88.80;;;;;;5033543;28;20375;-89
2022/01/04 08:35:41;;;;;;;;;;;8.30;88.70;;;;;;5057395;28;19916;-88
2022/01/04 08:38:07;;;;;;;;;;;8.30;88.30;;;;;;5033621;28;19917;-89
2022/01/04 08:40:33;;;;;;;;;;;8.30;88.40;;;;;;5051406;28;19956;-89
2022/01/04 08:42:58;;;;;;;;;;;8.30;88.20;;;;;;5051249;28;20070;-88
2022/01/04 08:45:24;;;;;;;;;;;8.20;88.20;;;;;;5051602;28;20004;-89
2022/01/04 08:47:51;;;;;;;;;;;8.30;88.40;;;;;;5046790;28;19975;-89
2022/01/04 08:50:18;;;;;;;;;;;8.30;88.00;;;;;;5019905;28;19913;-89
2022/01/04 08:52:44;;;;;;;;;;;8.30;88.00;;;;;;5033197;28;19975;-89
2022/01/04 08:55:10;;;;;;;;;;;8.20;88.20;;;;;;5033515;28;19913;-89
2022/01/04 08:57:35;;;;;;;;;;;8.20;88.50;;;;;;5033888;28;19913;-89
2022/01/04 09:00:02;;;;;;;;;;;8.10;88.40;;;;;;5039818;28;19963;-89
2022/01/04 09:02:28;;;;;;;;;;;8.20;88.40;;;;;;5033141;28;19957;-89
2022/01/04 09:04:55;;;;;;;;;;;8.30;88.20;;;;;;5018097;28;19948;-89
2022/01/04 09:07:20;;;;;;;;;;;8.30;88.40;;;;;;5020780;28;19962;-89
2022/01/04 09:09:46;;;;;;;;;;;8.40;88.20;;;;;;5037865;28;19909;-89
2022/01/04 09:12:13;;;;;;;;;;;8.40;88.00;;;;;;5037846;28;19954;-89
2022/01/04 09:14:55;;;;;;;;;;;8.40;87.90;;;;;;5033817;28;19914;-90
2022/01/04 09:20:06;;;;;;;;;;;8.40;88.30;;;;;;5043199;28;19915;-86
2022/01/04 09:22:32;;;;;;;;;;;8.30;88.80;;;;;;5037667;28;19999;-88
2022/01/04 09:24:57;;;;;;;;;;;8.40;88.70;;;;;;5037573;28;19978;-88
2022/01/04 09:27:23;;;;;;;;;;;8.50;88.60;;;;;;5037721;28;19913;-87
2022/01/04 09:29:49;;;;;;;;;;;8.40;88.20;;;;;;5061232;28;19955;-88
2022/01/04 09:32:16;;;;;;;;;;;8.40;88.30;;;;;;5047485;28;19913;-88
2022/01/04 09:34:47;;;;;;;;;;;8.50;88.40;;;;;;5036313;28;20039;-88
2022/01/04 09:37:13;;;;;;;;;;;8.50;88.20;;;;;;5043116;28;19982;-87
2022/01/04 09:39:39;;;;;;;;;;;8.60;87.80;;;;;;5055309;28;20427;-88
2022/01/04 09:42:07;;;;;;;;;;;8.60;87.40;;;;;;5036575;28;20017;-89
2022/01/04 09:44:33;;;;;;;;;;;8.60;87.50;;;;;;5038545;28;19963;-88
2022/01/04 09:47:02;;;;;;;;;;;8.50;87.60;;;;;;5040123;28;20290;-89
2022/01/04 09:49:28;;;;;;;;;;;8.50;87.80;;;;;;5020838;28;19955;-88
2022/01/04 09:51:54;;;;;;;;;;;8.40;87.80;;;;;;5036981;28;20008;-89
2022/01/04 09:54:22;;;;;;;;;;;8.40;87.90;;;;;;5037418;28;19974;-88
2022/01/04 09:56:48;;;;;;;;;;;8.50;88.20;;;;;;5038059;28;20003;-88
2022/01/04 09:59:14;;;;;;;;;;;8.40;88.20;;;;;;5036741;28;19917;-89
2022/01/04 10:01:39;;;;;;;;;;;8.40;88.40;;;;;;5036640;28;19920;-87
2022/01/04 10:04:05;;;;;;;;;;;8.40;87.90;;;;;;5037292;28;19996;-87
2022/01/04 10:06:31;;;;;;;;;;;8.40;87.90;;;;;;5037893;28;20285;-88
2022/01/04 10:09:00;;;;;;;;;;;8.40;87.90;;;;;;5036638;28;19909;-88
2022/01/04 10:11:47;;;;;;;;;;;8.40;87.80;;;;;;5037722;28;20352;-88
2022/01/04 10:14:41;;;;;;;;;;;8.40;88.00;;;;;;5036503;28;19909;-89
2022/01/04 10:17:09;;;;;;;;;;;8.40;88.40;;;;;;5034376;28;20004;-88
2022/01/04 10:19:45;;;;;;;;;;;8.50;87.90;;;;;;5052952;28;19926;-88
2022/01/04 10:22:31;;;;;;;;;;;8.60;87.60;;;;;;5059930;28;19919;-89
2022/01/04 10:25:00;;;;;;;;;;;8.60;87.50;;;;;;5037794;28;19909;-88
2022/01/04 10:27:30;;;;;;;;;;;8.60;87.60;;;;;;5036956;28;19908;-88
2022/01/04 10:30:14;;;;;;;;;;;8.50;87.50;;;;;;5050922;28;19919;-88
2022/01/04 10:32:51;;;;;;;;;;;8.50;87.70;;;;;;5054788;28;19915;-88
2022/01/04 10:35:27;;;;;;;;;;;8.50;87.40;;;;;;5053893;28;19970;-87
2022/01/04 10:37:54;;;;;;;;;;;8.50;87.90;;;;;;5054504;28;19920;-88
2022/01/04 10:40:20;;;;;;;;;;;8.50;87.90;;;;;;5036326;28;20335;-88
2022/01/04 10:42:46;;;;;;;;;;;8.40;88.10;;;;;;5035865;28;19916;-88
2022/01/04 10:45:32;;;;;;;;;;;8.40;88.20;;;;;;5081983;22;19935;-84
2022/01/04 10:48:22;;;;;;;;;;;8.60;88.30;;;;;;5055533;28;20288;-83
2022/01/04 10:51:11;;;;;;;;;;;8.50;87.60;;;;;;5053070;28;19913;-84
2022/01/04 10:54:06;;;;;;;;;;;8.50;87.90;;;;;;5039649;28;20230;-83
2022/01/04 10:57:04;;;;;;;;;;;;;;;;;;;;;
2022/01/04 10:59:57;;;;;;;;;;;8.50;87.90;;;;;;5074963;28;19968;-82
2022/01/04 11:02:52;;;;;;;;;;;8.50;87.50;;;;;;5076293;28;20336;-83
2022/01/04 11:14:18;;;;;;;;;;;8.60;87.20;;;;;;5066696;28;19954;-81
2022/01/04 11:19:51;;;;;;;;;;;8.60;87.70;;;;;;5054409;28;19966;-82
2022/01/04 11:22:55;;;;;;;;;;;8.60;87.50;;;;;;5070468;28;20377;-83
2022/01/04 11:25:58;;;;;;;;;;;8.60;87.40;;;;;;5059762;28;19912;-83
2022/01/04 11:28:39;;;;;;;;;;;8.60;87.70;;;;;;5062564;28;19913;-82
2022/01/04 11:31:45;;;;;;;;;;;8.60;87.80;;;;;;5075665;28;19962;-84
2022/01/04 11:37:06;;;;;;;;;;;8.50;88.20;;;;;;5063032;28;20038;-83
2022/01/04 11:39:43;;;;;;;;;;;8.60;88.20;;;;;;5056625;28;19917;-83
2022/01/04 11:42:37;;;;;;;;;;;8.60;87.40;;;;;;5056631;28;19931;-83
2022/01/04 11:45:17;;;;;;;;;;;8.60;87.70;;;;;;5066622;28;19944;-83
2022/01/04 11:48:00;;;;;;;;;;;;;;;;;;;;;
2022/01/04 11:50:45;;;;;;;;;;;;;;;;;;;;;
2022/01/04 11:53:14;;;;;;;;;;;8.60;88.10;;;;;;5075503;28;19987;-81
2022/01/04 11:56:11;;;;;;;;;;;8.50;88.10;;;;;;5072500;28;19916;-81
2022/01/04 11:58:50;;;;;;;;;;;8.60;88.20;;;;;;5052679;28;20355;-80
2022/01/04 12:01:27;;;;;;;;;;;8.60;88.30;;;;;;5073079;28;20584;-81
2022/01/04 12:03:55;;;;;;;;;;;8.70;88.50;;;;;;5056279;28;19912;-81
2022/01/04 12:06:26;;;;;;;;;;;8.80;87.90;;;;;;5055826;28;19967;-81
2022/01/04 12:09:13;;;;;;;;;;;8.80;87.80;;;;;;5073376;28;19912;-84
2022/01/04 12:11:56;;;;;;;;;;;8.70;88.10;;;;;;5033396;28;19976;-81
2022/01/04 12:14:38;;;;;;;;;;;;;;;;;;;;;
2022/01/04 12:17:12;;;;;;;;;;;8.90;87.90;;;;;;5074432;28;19920;-81
2022/01/04 12:20:28;;;;;;;;;;;9.00;87.50;;;;;;5054419;28;19912;-81
2022/01/04 12:28:27;;;;;;;;;;;8.80;88.30;;;;;;5098582;22;19956;-81
2022/01/04 12:31:12;;;;;;;;;;;8.90;87.90;;;;;;5053193;28;19909;-81
2022/01/04 12:37:02;;;;;;;;;;;8.80;87.80;;;;;;5028028;28;20357;-82
2022/01/04 12:39:44;;;;;;;;;;;8.80;87.70;;;;;;5035883;28;19936;-82
2022/01/04 12:42:15;;;;;;;;;;;8.80;88.00;;;;;;5034853;28;19967;-82
2022/01/04 12:45:06;;;;;;;;;;;8.80;88.20;;;;;;5032122;28;19921;-82
2022/01/04 12:50:38;;;;;;;;;;;8.70;88.30;;;;;;5031801;28;19920;-82
2022/01/04 12:53:32;;;;;;;;;;;8.60;88.00;;;;;;5030510;28;19975;-82
2022/01/04 12:56:06;;;;;;;;;;;8.70;87.80;;;;;;5027136;28;19913;-83
2022/01/04 13:04:23;;;;;;;;;;;8.70;88.10;;;;;;5033880;28;19924;-83
2022/01/04 13:07:02;;;;;;;;;;;8.60;88.20;;;;;;5034065;28;19916;-82
2022/01/04 13:09:30;;;;;;;;;;;8.70;88.20;;;;;;5031212;28;19940;-83
2022/01/04 13:12:11;;;;;;;;;;;8.70;87.90;;;;;;5050491;28;19914;-82
2022/01/04 13:14:46;;;;;;;;;;;8.60;88.00;;;;;;5048862;28;19913;-83
2022/01/04 13:17:42;;;;;;;;;;;;;;;;;;;;;
2022/01/04 13:20:31;;;;;;;;;;;8.70;87.40;;;;;;5029478;28;19992;-82
2022/01/04 13:23:18;;;;;;;;;;;8.60;87.60;;;;;;5034240;28;20000;-82
2022/01/04 13:26:29;;;;;;;;;;;;;;;;;;;;;
2022/01/04 13:29:00;;;;;;;;;;;8.60;88.20;;;;;;4986827;28;20001;-82
2022/01/04 13:31:32;;;;;;;;;;;8.50;88.40;;;;;;5054616;28;19913;-81
2022/01/04 13:33:57;;;;;;;;;;;8.60;88.30;;;;;;5052085;28;20137;-81
2022/01/04 13:36:23;;;;;;;;;;;8.60;88.50;;;;;;5041535;28;19945;-80
2022/01/04 13:38:56;;;;;;;;;;;8.50;88.90;;;;;;5048799;28;19924;-81
2022/01/04 13:41:35;;;;;;;;;;;8.60;88.70;;;;;;5023786;28;19947;-83
2022/01/04 13:44:01;;;;;;;;;;;8.60;88.60;;;;;;5032306;28;19921;-82
2022/01/04 13:46:27;;;;;;;;;;;8.60;89.20;;;;;;5028746;28;19936;-86
2022/01/04 13:48:53;;;;;;;;;;;8.60;89.30;;;;;;5036379;28;20361;-87
2022/01/04 13:51:20;;;;;;;;;;;8.60;89.10;;;;;;5037357;28;19967;-85
2022/01/04 13:53:50;;;;;;;;;;;8.60;88.80;;;;;;5037212;28;19917;-84
2022/01/04 13:56:16;;;;;;;;;;;8.60;89.00;;;;;;5023763;28;20820;-84
2022/01/04 13:58:44;;;;;;;;;;;8.60;89.10;;;;;;5032942;28;19924;-86
2022/01/04 14:01:10;;;;;;;;;;;8.70;89.40;;;;;;5039401;28;19924;-85
2022/01/04 14:03:35;;;;;;;;;;;8.80;88.80;;;;;;5034927;28;19916;-84
2022/01/04 14:06:01;;;;;;;;;;;8.70;88.80;;;;;;5041557;28;20131;-85
2022/01/04 14:08:46;;;;;;;;;;;8.70;88.90;;;;;;5043480;28;20297;-85
2022/01/04 14:11:11;;;;;;;;;;;8.70;88.80;;;;;;5028487;28;20324;-84
2022/01/04 14:13:37;;;;;;;;;;;8.70;89.00;;;;;;5032339;28;20114;-83
2022/01/04 14:16:13;;;;;;;;;;;8.70;88.70;;;;;;5032737;28;20151;-82
2022/01/04 14:18:58;;;;;;;;;;;8.60;89.20;;;;;;5043542;28;19921;-82
2022/01/04 14:21:43;;;;;;;;;;;8.60;88.70;;;;;;5045221;28;19919;-83
2022/01/04 14:24:27;;;;;;;;;;;8.60;87.60;;;;;;5046856;28;19920;-85
2022/01/04 14:26:52;;;;;;;;;;;8.50;86.50;;;;;;5037144;28;19917;-83
2022/01/04 14:29:27;;;;;;;;;;;8.20;87.00;;;;;;5035132;28;19921;-83
2022/01/04 14:31:57;;;;;;;;;;;8.20;87.40;;;;;;5053428;28;20353;-84
2022/01/04 14:34:22;;;;;;;;;;;8.00;86.50;;;;;;5039973;28;20317;-84
2022/01/04 14:36:48;;;;;;;;;;;8.00;87.50;;;;;;5037432;28;19928;-85
2022/01/04 14:39:13;;;;;;;;;;;8.00;86.70;;;;;;5016314;28;19972;-87
2022/01/04 14:41:39;;;;;;;;;;;7.80;88.00;;;;;;5040014;28;20774;-87
2022/01/04 14:44:04;;;;;;;;;;;7.80;86.70;;;;;;5043541;28;19963;-88
2022/01/04 14:46:31;;;;;;;;;;;7.70;87.40;;;;;;5031164;28;19913;-85
2022/01/04 14:48:56;;;;;;;;;;;7.70;87.20;;;;;;5029311;28;19917;-88
2022/01/04 14:51:22;;;;;;;;;;;7.60;87.10;;;;;;5027306;28;20292;-87
2022/01/04 14:53:47;;;;;;;;;;;7.60;87.70;;;;;;5045728;28;19970;-86
2022/01/04 14:56:16;;;;;;;;;;;7.60;87.30;;;;;;5037993;28;19921;-87
2022/01/04 14:58:44;;;;;;;;;;;7.60;87.50;;;;;;5031752;28;19925;-87
2022/01/04 15:01:11;;;;;;;;;;;7.60;87.70;;;;;;5047641;28;19917;-87
2022/01/04 15:03:36;;;;;;;;;;;7.50;87.60;;;;;;5032884;28;20365;-87
2022/01/04 15:06:04;;;;;;;;;;;7.50;87.80;;;;;;5033755;28;19952;-87
2022/01/04 15:08:30;;;;;;;;;;;7.50;87.90;;;;;;5033079;28;20735;-89
2022/01/04 15:10:59;;;;;;;;;;;7.60;88.50;;;;;;5036231;28;20312;-87
2022/01/04 15:13:24;;;;;;;;;;;7.60;88.40;;;;;;5045741;28;19913;-87
2022/01/04 15:15:50;;;;;;;;;;;7.60;88.00;;;;;;5041859;28;20850;-87
2022/01/04 15:18:16;;;;;;;;;;;7.60;88.40;;;;;;5034003;28;19967;-85
2022/01/04 15:20:45;;;;;;;;;;;7.60;87.90;;;;;;5031087;28;20157;-87
2022/01/04 15:23:10;;;;;;;;;;;7.60;88.30;;;;;;5028267;28;19921;-87
2022/01/04 15:25:36;;;;;;;;;;;7.60;88.20;;;;;;5040376;28;19914;-87
2022/01/04 15:28:01;;;;;;;;;;;7.60;88.30;;;;;;5053830;28;19917;-88
2022/01/04 15:30:28;;;;;;;;;;;7.60;88.60;;;;;;5044328;28;20391;-87
2022/01/04 15:32:54;;;;;;;;;;;7.60;88.50;;;;;;5039730;28;20383;-87